sensor_id;sensor_type;location;lat;lon;timestamp;P1;durP1;ratioP1;P2;durP2;ratioP2
39050;SDS011;24805;55.852;37.644;2023-03-19T00:00:35;4.05;;;1.83;;
39050;SDS011;24805;55.852;37.644;2023-03-19T00:05:37;4.53;;;1.98;;
39050;SDS011;24805;55.852;37.644;2023-03-19T00:10:39;4.50;;;1.90;;
39050;SDS011;24805;55.852;37.644;2023-03-19T00:15:41;4.35;;;1.75;;
39050;SDS011;24805;55.852;37.644;2023-03-19T00:20:43;3.90;;;2.00;;
39050;SDS011;24805;55.852;37.644;2023-03-19T00:25:46;4.75;;;2.40;;
39050;SDS011;24805;55.852;37.644;2023-03-19T00:30:48;5.30;;;2.45;;
39050;SDS011;24805;55.852;37.644;2023-03-19T00:35:51;5.63;;;2.10;;
39050;SDS011;24805;55.852;37.644;2023-03-19T00:40:53;8.50;;;2.05;;
39050;SDS011;24805;55.852;37.644;2023-03-19T00:45:56;4.93;;;2.35;;
39050;SDS011;24805;55.852;37.644;2023-03-19T00:51:02;4.93;;;2.28;;
39050;SDS011;24805;55.852;37.644;2023-03-19T00:56:05;8.18;;;2.47;;
39050;SDS011;24805;55.852;37.644;2023-03-19T01:01:08;4.13;;;1.98;;
39050;SDS011;24805;55.852;37.644;2023-03-19T01:06:13;3.85;;;1.95;;
39050;SDS011;24805;55.852;37.644;2023-03-19T01:11:15;1.98;;;1.50;;
39050;SDS011;24805;55.852;37.644;2023-03-19T01:16:18;3.08;;;1.65;;
39050;SDS011;24805;55.852;37.644;2023-03-19T01:21:21;5.68;;;2.30;;
39050;SDS011;24805;55.852;37.644;2023-03-19T01:26:23;5.00;;;2.20;;
39050;SDS011;24805;55.852;37.644;2023-03-19T01:31:30;4.15;;;2.60;;
39050;SDS011;24805;55.852;37.644;2023-03-19T01:36:50;7.35;;;2.10;;
39050;SDS011;24805;55.852;37.644;2023-03-19T01:42:01;4.85;;;2.17;;
39050;SDS011;24805;55.852;37.644;2023-03-19T01:47:24;6.90;;;2.20;;
39050;SDS011;24805;55.852;37.644;2023-03-19T01:52:46;5.18;;;2.20;;
39050;SDS011;24805;55.852;37.644;2023-03-19T01:58:11;5.13;;;2.67;;
39050;SDS011;24805;55.852;37.644;2023-03-19T02:03:32;9.87;;;2.43;;
39050;SDS011;24805;55.852;37.644;2023-03-19T02:08:46;7.05;;;2.88;;
39050;SDS011;24805;55.852;37.644;2023-03-19T02:13:50;9.10;;;3.17;;
39050;SDS011;24805;55.852;37.644;2023-03-19T02:18:52;6.25;;;3.20;;
39050;SDS011;24805;55.852;37.644;2023-03-19T02:24:00;6.00;;;3.00;;
39050;SDS011;24805;55.852;37.644;2023-03-19T02:29:43;4.78;;;2.50;;
39050;SDS011;24805;55.852;37.644;2023-03-19T02:34:46;7.18;;;3.00;;
39050;SDS011;24805;55.852;37.644;2023-03-19T02:45:05;4.53;;;2.35;;
39050;SDS011;24805;55.852;37.644;2023-03-19T02:50:08;5.93;;;2.97;;
39050;SDS011;24805;55.852;37.644;2023-03-19T02:55:11;6.38;;;2.05;;
39050;SDS011;24805;55.852;37.644;2023-03-19T03:00:13;7.85;;;3.28;;
39050;SDS011;24805;55.852;37.644;2023-03-19T03:05:18;4.28;;;2.33;;
39050;SDS011;24805;55.852;37.644;2023-03-19T03:10:21;5.82;;;2.50;;
39050;SDS011;24805;55.852;37.644;2023-03-19T03:15:24;7.90;;;2.75;;
39050;SDS011;24805;55.852;37.644;2023-03-19T03:20:26;4.68;;;2.28;;
39050;SDS011;24805;55.852;37.644;2023-03-19T03:25:28;5.10;;;2.13;;
39050;SDS011;24805;55.852;37.644;2023-03-19T03:30:31;7.45;;;3.17;;
39050;SDS011;24805;55.852;37.644;2023-03-19T03:35:33;6.07;;;2.85;;
39050;SDS011;24805;55.852;37.644;2023-03-19T03:40:36;7.90;;;2.05;;
39050;SDS011;24805;55.852;37.644;2023-03-19T03:45:38;8.25;;;2.65;;
39050;SDS011;24805;55.852;37.644;2023-03-19T03:50:40;6.13;;;2.05;;
39050;SDS011;24805;55.852;37.644;2023-03-19T03:55:46;7.28;;;2.70;;
39050;SDS011;24805;55.852;37.644;2023-03-19T04:00:51;7.10;;;3.55;;
39050;SDS011;24805;55.852;37.644;2023-03-19T04:05:55;6.18;;;2.80;;
39050;SDS011;24805;55.852;37.644;2023-03-19T04:10:57;9.82;;;3.50;;
39050;SDS011;24805;55.852;37.644;2023-03-19T04:16:00;5.40;;;2.80;;
39050;SDS011;24805;55.852;37.644;2023-03-19T04:21:05;12.40;;;3.97;;
39050;SDS011;24805;55.852;37.644;2023-03-19T04:26:08;7.78;;;3.40;;
39050;SDS011;24805;55.852;37.644;2023-03-19T04:31:11;7.07;;;3.47;;
39050;SDS011;24805;55.852;37.644;2023-03-19T04:36:17;7.00;;;3.75;;
39050;SDS011;24805;55.852;37.644;2023-03-19T04:41:20;5.88;;;3.88;;
39050;SDS011;24805;55.852;37.644;2023-03-19T04:46:51;11.20;;;4.45;;
39050;SDS011;24805;55.852;37.644;2023-03-19T04:51:55;10.57;;;4.20;;
39050;SDS011;24805;55.852;37.644;2023-03-19T04:56:58;13.73;;;5.70;;
39050;SDS011;24805;55.852;37.644;2023-03-19T05:02:05;10.00;;;4.45;;
39050;SDS011;24805;55.852;37.644;2023-03-19T05:07:11;19.65;;;7.10;;
39050;SDS011;24805;55.852;37.644;2023-03-19T05:12:14;11.38;;;5.50;;
39050;SDS011;24805;55.852;37.644;2023-03-19T05:17:21;10.63;;;4.93;;
39050;SDS011;24805;55.852;37.644;2023-03-19T05:22:33;9.15;;;4.35;;
39050;SDS011;24805;55.852;37.644;2023-03-19T05:27:35;6.97;;;4.53;;
39050;SDS011;24805;55.852;37.644;2023-03-19T05:32:43;9.90;;;4.32;;
39050;SDS011;24805;55.852;37.644;2023-03-19T05:37:57;7.28;;;3.92;;
39050;SDS011;24805;55.852;37.644;2023-03-19T05:43:00;6.53;;;4.10;;
39050;SDS011;24805;55.852;37.644;2023-03-19T05:48:04;6.15;;;3.55;;
39050;SDS011;24805;55.852;37.644;2023-03-19T05:53:12;8.18;;;3.45;;
39050;SDS011;24805;55.852;37.644;2023-03-19T05:58:22;6.43;;;3.05;;
39050;SDS011;24805;55.852;37.644;2023-03-19T06:03:24;9.73;;;3.53;;
39050;SDS011;24805;55.852;37.644;2023-03-19T06:08:28;9.52;;;3.42;;
39050;SDS011;24805;55.852;37.644;2023-03-19T06:13:36;7.07;;;3.50;;
39050;SDS011;24805;55.852;37.644;2023-03-19T06:18:46;8.25;;;2.90;;
39050;SDS011;24805;55.852;37.644;2023-03-19T06:23:50;7.47;;;3.03;;
39050;SDS011;24805;55.852;37.644;2023-03-19T06:28:58;8.00;;;2.90;;
39050;SDS011;24805;55.852;37.644;2023-03-19T06:34:00;4.65;;;2.80;;
39050;SDS011;24805;55.852;37.644;2023-03-19T06:39:11;7.10;;;2.92;;
39050;SDS011;24805;55.852;37.644;2023-03-19T06:44:14;4.57;;;3.10;;
39050;SDS011;24805;55.852;37.644;2023-03-19T06:49:16;9.80;;;3.17;;
39050;SDS011;24805;55.852;37.644;2023-03-19T06:54:19;7.95;;;3.10;;
39050;SDS011;24805;55.852;37.644;2023-03-19T06:59:22;4.75;;;2.53;;
39050;SDS011;24805;55.852;37.644;2023-03-19T07:04:24;4.78;;;2.95;;
39050;SDS011;24805;55.852;37.644;2023-03-19T07:09:26;6.80;;;3.00;;
39050;SDS011;24805;55.852;37.644;2023-03-19T07:14:29;9.15;;;3.72;;
39050;SDS011;24805;55.852;37.644;2023-03-19T07:19:31;5.57;;;3.45;;
39050;SDS011;24805;55.852;37.644;2023-03-19T07:24:33;4.38;;;3.10;;
39050;SDS011;24805;55.852;37.644;2023-03-19T07:29:35;8.13;;;3.65;;
39050;SDS011;24805;55.852;37.644;2023-03-19T07:34:37;8.95;;;3.30;;
39050;SDS011;24805;55.852;37.644;2023-03-19T07:39:39;7.28;;;3.17;;
39050;SDS011;24805;55.852;37.644;2023-03-19T07:44:43;9.27;;;3.65;;
39050;SDS011;24805;55.852;37.644;2023-03-19T07:49:45;9.57;;;3.67;;
39050;SDS011;24805;55.852;37.644;2023-03-19T07:54:47;9.50;;;3.25;;
39050;SDS011;24805;55.852;37.644;2023-03-19T07:59:50;6.65;;;3.08;;
39050;SDS011;24805;55.852;37.644;2023-03-19T08:04:53;6.85;;;3.10;;
39050;SDS011;24805;55.852;37.644;2023-03-19T08:09:56;8.88;;;3.40;;
39050;SDS011;24805;55.852;37.644;2023-03-19T08:14:59;7.53;;;3.65;;
39050;SDS011;24805;55.852;37.644;2023-03-19T08:20:01;9.15;;;3.65;;
39050;SDS011;24805;55.852;37.644;2023-03-19T08:25:03;8.02;;;3.22;;
39050;SDS011;24805;55.852;37.644;2023-03-19T08:30:08;5.07;;;3.15;;
39050;SDS011;24805;55.852;37.644;2023-03-19T08:35:11;6.28;;;3.42;;
39050;SDS011;24805;55.852;37.644;2023-03-19T08:40:14;8.00;;;3.80;;
39050;SDS011;24805;55.852;37.644;2023-03-19T08:45:17;7.70;;;3.25;;
39050;SDS011;24805;55.852;37.644;2023-03-19T08:50:19;7.97;;;3.47;;
39050;SDS011;24805;55.852;37.644;2023-03-19T08:55:22;7.57;;;2.75;;
39050;SDS011;24805;55.852;37.644;2023-03-19T09:00:24;5.75;;;2.40;;
39050;SDS011;24805;55.852;37.644;2023-03-19T09:05:27;7.43;;;3.05;;
39050;SDS011;24805;55.852;37.644;2023-03-19T09:10:30;3.60;;;2.80;;
39050;SDS011;24805;55.852;37.644;2023-03-19T09:15:33;5.97;;;3.08;;
39050;SDS011;24805;55.852;37.644;2023-03-19T09:20:36;5.55;;;2.42;;
39050;SDS011;24805;55.852;37.644;2023-03-19T09:25:39;5.78;;;2.53;;
39050;SDS011;24805;55.852;37.644;2023-03-19T09:30:41;5.60;;;2.20;;
39050;SDS011;24805;55.852;37.644;2023-03-19T09:42:20;5.53;;;2.85;;
39050;SDS011;24805;55.852;37.644;2023-03-19T09:47:42;5.75;;;2.30;;
39050;SDS011;24805;55.852;37.644;2023-03-19T09:58:12;4.65;;;2.65;;
39050;SDS011;24805;55.852;37.644;2023-03-19T10:08:57;5.32;;;3.00;;
39050;SDS011;24805;55.852;37.644;2023-03-19T10:19:38;6.68;;;2.83;;
39050;SDS011;24805;55.852;37.644;2023-03-19T10:24:46;5.55;;;3.50;;
39050;SDS011;24805;55.852;37.644;2023-03-19T10:29:51;10.68;;;2.80;;
39050;SDS011;24805;55.852;37.644;2023-03-19T10:34:54;4.38;;;2.80;;
39050;SDS011;24805;55.852;37.644;2023-03-19T10:40:00;7.18;;;2.80;;
39050;SDS011;24805;55.852;37.644;2023-03-19T10:50:42;9.45;;;3.83;;
39050;SDS011;24805;55.852;37.644;2023-03-19T11:01:05;12.38;;;5.20;;
39050;SDS011;24805;55.852;37.644;2023-03-19T11:06:24;9.18;;;4.00;;
39050;SDS011;24805;55.852;37.644;2023-03-19T11:22:24;11.45;;;4.63;;
39050;SDS011;24805;55.852;37.644;2023-03-19T11:27:33;7.45;;;3.22;;
39050;SDS011;24805;55.852;37.644;2023-03-19T11:39:17;7.70;;;3.75;;
39050;SDS011;24805;55.852;37.644;2023-03-19T12:05:18;9.13;;;3.85;;
39050;SDS011;24805;55.852;37.644;2023-03-19T12:15:32;6.22;;;4.85;;
39050;SDS011;24805;55.852;37.644;2023-03-19T12:26:07;7.63;;;4.60;;
39050;SDS011;24805;55.852;37.644;2023-03-19T12:36:49;12.02;;;5.55;;
39050;SDS011;24805;55.852;37.644;2023-03-19T12:42:09;8.02;;;5.03;;
39050;SDS011;24805;55.852;37.644;2023-03-19T12:47:22;7.50;;;5.22;;
39050;SDS011;24805;55.852;37.644;2023-03-19T13:08:34;8.73;;;5.57;;
39050;SDS011;24805;55.852;37.644;2023-03-19T13:29:30;9.20;;;5.80;;
39050;SDS011;24805;55.852;37.644;2023-03-19T13:34:35;8.82;;;5.78;;
39050;SDS011;24805;55.852;37.644;2023-03-19T13:39:38;10.65;;;5.90;;
39050;SDS011;24805;55.852;37.644;2023-03-19T13:44:52;8.50;;;5.68;;
39050;SDS011;24805;55.852;37.644;2023-03-19T14:05:46;9.45;;;5.88;;
39050;SDS011;24805;55.852;37.644;2023-03-19T14:11:00;11.13;;;6.30;;
39050;SDS011;24805;55.852;37.644;2023-03-19T14:16:14;10.48;;;6.55;;
39050;SDS011;24805;55.852;37.644;2023-03-19T14:26:56;10.18;;;6.03;;
39050;SDS011;24805;55.852;37.644;2023-03-19T14:32:05;8.45;;;5.25;;
39050;SDS011;24805;55.852;37.644;2023-03-19T14:43:21;10.77;;;5.57;;
39050;SDS011;24805;55.852;37.644;2023-03-19T14:48:19;8.00;;;5.60;;
39050;SDS011;24805;55.852;37.644;2023-03-19T14:53:38;8.85;;;5.70;;
39050;SDS011;24805;55.852;37.644;2023-03-19T14:58:48;13.25;;;6.57;;
39050;SDS011;24805;55.852;37.644;2023-03-19T15:04:02;7.63;;;4.63;;
39050;SDS011;24805;55.852;37.644;2023-03-19T15:09:14;9.07;;;5.43;;
39050;SDS011;24805;55.852;37.644;2023-03-19T15:20:13;8.23;;;5.25;;
39050;SDS011;24805;55.852;37.644;2023-03-19T15:25:19;8.85;;;4.45;;
39050;SDS011;24805;55.852;37.644;2023-03-19T15:30:23;8.13;;;4.20;;
39050;SDS011;24805;55.852;37.644;2023-03-19T15:35:31;13.10;;;5.55;;
39050;SDS011;24805;55.852;37.644;2023-03-19T15:40:36;10.80;;;5.20;;
39050;SDS011;24805;55.852;37.644;2023-03-19T15:45:44;10.00;;;4.80;;
39050;SDS011;24805;55.852;37.644;2023-03-19T15:50:51;8.73;;;4.80;;
39050;SDS011;24805;55.852;37.644;2023-03-19T15:56:01;8.63;;;5.00;;
39050;SDS011;24805;55.852;37.644;2023-03-19T16:01:08;33.50;;;20.50;;
39050;SDS011;24805;55.852;37.644;2023-03-19T16:06:22;12.45;;;6.43;;
39050;SDS011;24805;55.852;37.644;2023-03-19T16:11:28;11.05;;;5.15;;
39050;SDS011;24805;55.852;37.644;2023-03-19T16:16:35;16.65;;;5.78;;
39050;SDS011;24805;55.852;37.644;2023-03-19T16:21:39;10.52;;;5.43;;
39050;SDS011;24805;55.852;37.644;2023-03-19T16:26:43;8.93;;;5.20;;
39050;SDS011;24805;55.852;37.644;2023-03-19T16:31:48;10.30;;;4.63;;
39050;SDS011;24805;55.852;37.644;2023-03-19T16:36:54;9.18;;;5.55;;
39050;SDS011;24805;55.852;37.644;2023-03-19T16:47:29;12.55;;;5.35;;
39050;SDS011;24805;55.852;37.644;2023-03-19T16:57:34;10.88;;;5.55;;
39050;SDS011;24805;55.852;37.644;2023-03-19T17:02:37;7.93;;;5.07;;
39050;SDS011;24805;55.852;37.644;2023-03-19T17:07:39;13.13;;;5.43;;
39050;SDS011;24805;55.852;37.644;2023-03-19T17:12:43;12.02;;;4.85;;
39050;SDS011;24805;55.852;37.644;2023-03-19T17:17:47;12.45;;;5.13;;
39050;SDS011;24805;55.852;37.644;2023-03-19T17:22:49;13.10;;;5.70;;
39050;SDS011;24805;55.852;37.644;2023-03-19T17:27:52;9.27;;;4.72;;
39050;SDS011;24805;55.852;37.644;2023-03-19T17:32:54;15.73;;;5.82;;
39050;SDS011;24805;55.852;37.644;2023-03-19T17:37:57;17.52;;;6.50;;
39050;SDS011;24805;55.852;37.644;2023-03-19T17:42:59;11.45;;;6.88;;
39050;SDS011;24805;55.852;37.644;2023-03-19T17:48:02;15.45;;;7.22;;
39050;SDS011;24805;55.852;37.644;2023-03-19T17:53:04;15.68;;;7.20;;
39050;SDS011;24805;55.852;37.644;2023-03-19T17:58:14;12.07;;;7.13;;
39050;SDS011;24805;55.852;37.644;2023-03-19T18:03:19;16.03;;;7.97;;
39050;SDS011;24805;55.852;37.644;2023-03-19T18:08:23;17.45;;;7.57;;
39050;SDS011;24805;55.852;37.644;2023-03-19T18:13:25;18.80;;;8.20;;
39050;SDS011;24805;55.852;37.644;2023-03-19T18:18:27;12.02;;;7.82;;
39050;SDS011;24805;55.852;37.644;2023-03-19T18:23:29;14.40;;;7.72;;
39050;SDS011;24805;55.852;37.644;2023-03-19T18:28:32;18.25;;;8.55;;
39050;SDS011;24805;55.852;37.644;2023-03-19T18:33:34;15.85;;;7.85;;
39050;SDS011;24805;55.852;37.644;2023-03-19T18:38:36;13.70;;;7.60;;
39050;SDS011;24805;55.852;37.644;2023-03-19T18:43:38;24.85;;;8.07;;
39050;SDS011;24805;55.852;37.644;2023-03-19T18:48:40;13.43;;;7.18;;
39050;SDS011;24805;55.852;37.644;2023-03-19T18:53:42;12.75;;;7.30;;
39050;SDS011;24805;55.852;37.644;2023-03-19T18:58:44;15.50;;;8.15;;
39050;SDS011;24805;55.852;37.644;2023-03-19T19:03:47;15.05;;;7.28;;
39050;SDS011;24805;55.852;37.644;2023-03-19T19:08:51;17.70;;;7.50;;
39050;SDS011;24805;55.852;37.644;2023-03-19T19:13:54;17.33;;;8.32;;
39050;SDS011;24805;55.852;37.644;2023-03-19T19:18:59;18.27;;;8.65;;
39050;SDS011;24805;55.852;37.644;2023-03-19T19:24:02;14.63;;;7.47;;
39050;SDS011;24805;55.852;37.644;2023-03-19T19:29:04;17.95;;;8.02;;
39050;SDS011;24805;55.852;37.644;2023-03-19T19:34:08;15.27;;;7.45;;
39050;SDS011;24805;55.852;37.644;2023-03-19T19:39:15;19.35;;;7.38;;
39050;SDS011;24805;55.852;37.644;2023-03-19T19:44:18;14.15;;;7.60;;
39050;SDS011;24805;55.852;37.644;2023-03-19T19:49:22;14.68;;;7.03;;
39050;SDS011;24805;55.852;37.644;2023-03-19T19:54:25;17.60;;;7.95;;
39050;SDS011;24805;55.852;37.644;2023-03-19T19:59:27;15.82;;;7.55;;
39050;SDS011;24805;55.852;37.644;2023-03-19T20:04:30;18.77;;;6.97;;
39050;SDS011;24805;55.852;37.644;2023-03-19T20:09:32;14.23;;;7.32;;
39050;SDS011;24805;55.852;37.644;2023-03-19T20:14:34;14.02;;;6.95;;
39050;SDS011;24805;55.852;37.644;2023-03-19T20:19:37;17.02;;;6.85;;
39050;SDS011;24805;55.852;37.644;2023-03-19T20:24:39;12.80;;;6.57;;
39050;SDS011;24805;55.852;37.644;2023-03-19T20:29:42;16.13;;;7.22;;
39050;SDS011;24805;55.852;37.644;2023-03-19T20:34:45;14.23;;;7.15;;
39050;SDS011;24805;55.852;37.644;2023-03-19T20:39:47;13.35;;;7.55;;
39050;SDS011;24805;55.852;37.644;2023-03-19T20:44:50;14.68;;;6.88;;
39050;SDS011;24805;55.852;37.644;2023-03-19T20:49:57;13.02;;;6.30;;
39050;SDS011;24805;55.852;37.644;2023-03-19T20:54:59;13.10;;;6.70;;
39050;SDS011;24805;55.852;37.644;2023-03-19T21:00:05;14.38;;;6.13;;
39050;SDS011;24805;55.852;37.644;2023-03-19T21:05:27;12.32;;;6.47;;
39050;SDS011;24805;55.852;37.644;2023-03-19T21:10:40;14.93;;;7.63;;
39050;SDS011;24805;55.852;37.644;2023-03-19T21:15:44;19.73;;;7.15;;
39050;SDS011;24805;55.852;37.644;2023-03-19T21:20:48;16.38;;;8.13;;
39050;SDS011;24805;55.852;37.644;2023-03-19T21:25:55;23.20;;;8.48;;
39050;SDS011;24805;55.852;37.644;2023-03-19T21:30:58;18.05;;;8.80;;
39050;SDS011;24805;55.852;37.644;2023-03-19T21:36:01;21.20;;;10.23;;
39050;SDS011;24805;55.852;37.644;2023-03-19T21:41:04;24.25;;;9.65;;
39050;SDS011;24805;55.852;37.644;2023-03-19T21:46:11;19.80;;;8.18;;
39050;SDS011;24805;55.852;37.644;2023-03-19T21:51:26;18.45;;;8.70;;
39050;SDS011;24805;55.852;37.644;2023-03-19T21:56:29;19.50;;;8.93;;
39050;SDS011;24805;55.852;37.644;2023-03-19T22:01:40;16.87;;;8.40;;
39050;SDS011;24805;55.852;37.644;2023-03-19T22:06:43;18.65;;;8.85;;
39050;SDS011;24805;55.852;37.644;2023-03-19T22:11:45;20.02;;;7.90;;
39050;SDS011;24805;55.852;37.644;2023-03-19T22:16:47;20.92;;;9.90;;
39050;SDS011;24805;55.852;37.644;2023-03-19T22:21:53;23.55;;;10.13;;
39050;SDS011;24805;55.852;37.644;2023-03-19T22:26:56;20.95;;;10.35;;
39050;SDS011;24805;55.852;37.644;2023-03-19T22:31:58;21.83;;;8.95;;
39050;SDS011;24805;55.852;37.644;2023-03-19T22:37:01;20.70;;;9.80;;
39050;SDS011;24805;55.852;37.644;2023-03-19T22:42:22;20.48;;;9.35;;
39050;SDS011;24805;55.852;37.644;2023-03-19T22:47:26;21.60;;;9.18;;
39050;SDS011;24805;55.852;37.644;2023-03-19T22:52:36;19.00;;;8.65;;
39050;SDS011;24805;55.852;37.644;2023-03-19T22:57:38;17.58;;;8.90;;
39050;SDS011;24805;55.852;37.644;2023-03-19T23:02:40;19.10;;;9.48;;
39050;SDS011;24805;55.852;37.644;2023-03-19T23:07:42;19.02;;;8.52;;
39050;SDS011;24805;55.852;37.644;2023-03-19T23:12:44;18.10;;;7.57;;
39050;SDS011;24805;55.852;37.644;2023-03-19T23:17:54;16.85;;;9.15;;
39050;SDS011;24805;55.852;37.644;2023-03-19T23:22:58;16.95;;;8.00;;
39050;SDS011;24805;55.852;37.644;2023-03-19T23:28:01;15.90;;;8.23;;
39050;SDS011;24805;55.852;37.644;2023-03-19T23:33:03;15.80;;;8.32;;
39050;SDS011;24805;55.852;37.644;2023-03-19T23:38:05;16.63;;;8.30;;
39050;SDS011;24805;55.852;37.644;2023-03-19T23:43:14;17.17;;;8.68;;
39050;SDS011;24805;55.852;37.644;2023-03-19T23:48:41;20.20;;;8.57;;
39050;SDS011;24805;55.852;37.644;2023-03-19T23:53:42;19.48;;;8.05;;
39050;SDS011;24805;55.852;37.644;2023-03-19T23:58:45;14.80;;;6.43;;
